sensor_id;sensor_type;location;lat;lon;timestamp;temperature;humidity
40023;DHT22;25713;-35.352;149.036;2023-04-06T00:01:41;17.80;85.80
40023;DHT22;25713;-35.352;149.036;2023-04-06T00:04:11;17.80;85.80
40023;DHT22;25713;-35.352;149.036;2023-04-06T00:06:41;17.80;85.80
40023;DHT22;25713;-35.352;149.036;2023-04-06T00:09:10;17.90;86.00
40023;DHT22;25713;-35.352;149.036;2023-04-06T00:11:40;17.90;86.50
40023;DHT22;25713;-35.352;149.036;2023-04-06T00:14:10;17.80;86.70
40023;DHT22;25713;-35.352;149.036;2023-04-06T00:16:39;17.80;86.90
40023;DHT22;25713;-35.352;149.036;2023-04-06T00:19:11;17.90;87.10
40023;DHT22;25713;-35.352;149.036;2023-04-06T00:21:40;17.90;86.90
40023;DHT22;25713;-35.352;149.036;2023-04-06T00:24:10;17.90;86.90
40023;DHT22;25713;-35.352;149.036;2023-04-06T00:26:39;17.90;86.90
40023;DHT22;25713;-35.352;149.036;2023-04-06T00:29:09;18.00;87.00
40023;DHT22;25713;-35.352;149.036;2023-04-06T00:31:38;18.00;87.10
40023;DHT22;25713;-35.352;149.036;2023-04-06T00:34:09;18.00;87.20
40023;DHT22;25713;-35.352;149.036;2023-04-06T00:36:39;18.00;87.20
40023;DHT22;25713;-35.352;149.036;2023-04-06T00:39:09;18.00;87.10
40023;DHT22;25713;-35.352;149.036;2023-04-06T00:41:39;18.00;88.00
40023;DHT22;25713;-35.352;149.036;2023-04-06T00:44:13;18.10;87.20
40023;DHT22;25713;-35.352;149.036;2023-04-06T00:46:43;18.10;87.30
40023;DHT22;25713;-35.352;149.036;2023-04-06T00:49:14;18.20;87.00
40023;DHT22;25713;-35.352;149.036;2023-04-06T00:51:44;18.20;86.40
40023;DHT22;25713;-35.352;149.036;2023-04-06T00:54:13;18.30;86.40
40023;DHT22;25713;-35.352;149.036;2023-04-06T00:56:44;18.30;86.30
40023;DHT22;25713;-35.352;149.036;2023-04-06T00:59:13;18.30;86.50
40023;DHT22;25713;-35.352;149.036;2023-04-06T01:01:43;18.40;86.30
40023;DHT22;25713;-35.352;149.036;2023-04-06T01:04:31;18.40;86.70
40023;DHT22;25713;-35.352;149.036;2023-04-06T01:07:01;18.40;86.80
40023;DHT22;25713;-35.352;149.036;2023-04-06T01:09:39;18.40;86.40
40023;DHT22;25713;-35.352;149.036;2023-04-06T01:12:16;18.40;86.50
40023;DHT22;25713;-35.352;149.036;2023-04-06T01:14:45;18.40;86.00
40023;DHT22;25713;-35.352;149.036;2023-04-06T01:17:15;18.40;86.40
40023;DHT22;25713;-35.352;149.036;2023-04-06T01:19:47;18.40;84.70
40023;DHT22;25713;-35.352;149.036;2023-04-06T01:22:25;18.40;83.80
40023;DHT22;25713;-35.352;149.036;2023-04-06T01:25:04;18.40;83.00
40023;DHT22;25713;-35.352;149.036;2023-04-06T01:27:51;18.40;83.50
40023;DHT22;25713;-35.352;149.036;2023-04-06T01:30:25;18.40;83.80
40023;DHT22;25713;-35.352;149.036;2023-04-06T01:32:58;18.50;83.90
40023;DHT22;25713;-35.352;149.036;2023-04-06T01:35:53;18.50;84.30
40023;DHT22;25713;-35.352;149.036;2023-04-06T01:38:25;18.60;84.90
40023;DHT22;25713;-35.352;149.036;2023-04-06T01:40:54;18.60;83.40
40023;DHT22;25713;-35.352;149.036;2023-04-06T01:43:26;18.70;83.10
40023;DHT22;25713;-35.352;149.036;2023-04-06T01:46:22;18.70;82.90
40023;DHT22;25713;-35.352;149.036;2023-04-06T01:48:52;18.80;83.00
40023;DHT22;25713;-35.352;149.036;2023-04-06T01:51:33;18.80;83.50
40023;DHT22;25713;-35.352;149.036;2023-04-06T01:54:07;18.80;84.00
40023;DHT22;25713;-35.352;149.036;2023-04-06T01:56:55;18.80;83.10
40023;DHT22;25713;-35.352;149.036;2023-04-06T01:59:33;18.80;83.00
40023;DHT22;25713;-35.352;149.036;2023-04-06T02:02:08;18.80;82.00
40023;DHT22;25713;-35.352;149.036;2023-04-06T02:04:39;18.80;83.40
40023;DHT22;25713;-35.352;149.036;2023-04-06T02:07:12;18.80;83.60
40023;DHT22;25713;-35.352;149.036;2023-04-06T02:09:44;18.80;83.40
40023;DHT22;25713;-35.352;149.036;2023-04-06T02:12:21;18.80;82.10
40023;DHT22;25713;-35.352;149.036;2023-04-06T02:14:51;18.80;82.60
40023;DHT22;25713;-35.352;149.036;2023-04-06T02:17:20;18.80;83.40
40023;DHT22;25713;-35.352;149.036;2023-04-06T02:19:50;18.70;83.60
40023;DHT22;25713;-35.352;149.036;2023-04-06T02:22:20;18.80;82.20
40023;DHT22;25713;-35.352;149.036;2023-04-06T02:24:51;18.70;82.90
40023;DHT22;25713;-35.352;149.036;2023-04-06T02:27:21;18.70;82.70
40023;DHT22;25713;-35.352;149.036;2023-04-06T02:29:50;18.70;83.30
40023;DHT22;25713;-35.352;149.036;2023-04-06T02:32:22;18.70;83.20
40023;DHT22;25713;-35.352;149.036;2023-04-06T02:34:52;18.70;82.90
40023;DHT22;25713;-35.352;149.036;2023-04-06T02:37:23;18.70;82.80
40023;DHT22;25713;-35.352;149.036;2023-04-06T02:39:54;18.70;82.40
40023;DHT22;25713;-35.352;149.036;2023-04-06T02:42:24;18.70;83.30
40023;DHT22;25713;-35.352;149.036;2023-04-06T02:44:55;18.70;84.00
40023;DHT22;25713;-35.352;149.036;2023-04-06T02:47:28;18.70;83.30
40023;DHT22;25713;-35.352;149.036;2023-04-06T02:49:58;18.70;84.10
40023;DHT22;25713;-35.352;149.036;2023-04-06T02:52:27;18.70;84.00
40023;DHT22;25713;-35.352;149.036;2023-04-06T02:54:59;18.70;83.90
40023;DHT22;25713;-35.352;149.036;2023-04-06T02:57:34;18.70;84.60
40023;DHT22;25713;-35.352;149.036;2023-04-06T03:00:04;18.70;84.00
40023;DHT22;25713;-35.352;149.036;2023-04-06T03:02:40;18.70;85.10
40023;DHT22;25713;-35.352;149.036;2023-04-06T03:05:13;18.70;86.30
40023;DHT22;25713;-35.352;149.036;2023-04-06T03:07:45;18.70;85.30
40023;DHT22;25713;-35.352;149.036;2023-04-06T03:10:28;18.80;85.40
40023;DHT22;25713;-35.352;149.036;2023-04-06T03:12:58;18.80;85.50
40023;DHT22;25713;-35.352;149.036;2023-04-06T03:15:40;18.80;85.30
40023;DHT22;25713;-35.352;149.036;2023-04-06T03:18:20;18.90;85.50
40023;DHT22;25713;-35.352;149.036;2023-04-06T03:20:52;18.90;85.00
40023;DHT22;25713;-35.352;149.036;2023-04-06T03:23:22;18.90;85.10
40023;DHT22;25713;-35.352;149.036;2023-04-06T03:25:57;19.00;84.90
40023;DHT22;25713;-35.352;149.036;2023-04-06T03:28:27;19.00;84.20
40023;DHT22;25713;-35.352;149.036;2023-04-06T03:30:59;19.00;84.10
40023;DHT22;25713;-35.352;149.036;2023-04-06T03:33:47;19.00;84.40
40023;DHT22;25713;-35.352;149.036;2023-04-06T03:36:23;19.00;84.60
40023;DHT22;25713;-35.352;149.036;2023-04-06T03:38:54;19.00;84.20
40023;DHT22;25713;-35.352;149.036;2023-04-06T03:41:26;19.00;85.70
40023;DHT22;25713;-35.352;149.036;2023-04-06T03:44:12;19.00;83.80
40023;DHT22;25713;-35.352;149.036;2023-04-06T03:46:41;19.00;82.60
40023;DHT22;25713;-35.352;149.036;2023-04-06T03:49:12;19.00;82.40
40023;DHT22;25713;-35.352;149.036;2023-04-06T03:51:44;19.00;83.60
40023;DHT22;25713;-35.352;149.036;2023-04-06T03:54:14;19.00;84.60
40023;DHT22;25713;-35.352;149.036;2023-04-06T03:56:46;19.00;84.50
40023;DHT22;25713;-35.352;149.036;2023-04-06T03:59:16;19.10;84.60
40023;DHT22;25713;-35.352;149.036;2023-04-06T04:01:45;19.10;84.20
40023;DHT22;25713;-35.352;149.036;2023-04-06T04:04:15;19.10;82.90
40023;DHT22;25713;-35.352;149.036;2023-04-06T04:06:44;19.10;83.50
40023;DHT22;25713;-35.352;149.036;2023-04-06T04:09:14;19.10;84.50
40023;DHT22;25713;-35.352;149.036;2023-04-06T04:11:46;19.10;85.90
40023;DHT22;25713;-35.352;149.036;2023-04-06T04:14:16;19.10;85.80
40023;DHT22;25713;-35.352;149.036;2023-04-06T04:16:46;19.20;86.40
40023;DHT22;25713;-35.352;149.036;2023-04-06T04:19:15;19.20;86.00
40023;DHT22;25713;-35.352;149.036;2023-04-06T04:21:46;19.20;85.90
40023;DHT22;25713;-35.352;149.036;2023-04-06T04:24:19;19.20;84.50
40023;DHT22;25713;-35.352;149.036;2023-04-06T04:26:51;19.20;85.80
40023;DHT22;25713;-35.352;149.036;2023-04-06T04:29:22;19.30;84.80
40023;DHT22;25713;-35.352;149.036;2023-04-06T04:31:53;19.30;81.90
40023;DHT22;25713;-35.352;149.036;2023-04-06T04:34:22;19.40;83.40
40023;DHT22;25713;-35.352;149.036;2023-04-06T04:36:52;19.40;82.30
40023;DHT22;25713;-35.352;149.036;2023-04-06T04:39:30;19.40;84.30
40023;DHT22;25713;-35.352;149.036;2023-04-06T04:42:07;19.50;84.70
40023;DHT22;25713;-35.352;149.036;2023-04-06T04:44:38;19.50;83.60
40023;DHT22;25713;-35.352;149.036;2023-04-06T04:47:08;19.50;82.10
40023;DHT22;25713;-35.352;149.036;2023-04-06T04:49:46;19.50;82.70
40023;DHT22;25713;-35.352;149.036;2023-04-06T04:52:21;19.50;82.10
40023;DHT22;25713;-35.352;149.036;2023-04-06T04:55:08;19.50;81.70
40023;DHT22;25713;-35.352;149.036;2023-04-06T04:57:40;19.50;82.90
40023;DHT22;25713;-35.352;149.036;2023-04-06T05:00:10;19.50;83.90
40023;DHT22;25713;-35.352;149.036;2023-04-06T05:02:42;19.50;83.90
40023;DHT22;25713;-35.352;149.036;2023-04-06T05:05:24;19.50;82.10
40023;DHT22;25713;-35.352;149.036;2023-04-06T05:07:53;19.40;83.20
40023;DHT22;25713;-35.352;149.036;2023-04-06T05:10:37;19.50;82.50
40023;DHT22;25713;-35.352;149.036;2023-04-06T05:13:10;19.50;82.00
40023;DHT22;25713;-35.352;149.036;2023-04-06T05:15:40;19.50;83.40
40023;DHT22;25713;-35.352;149.036;2023-04-06T05:18:22;19.50;82.20
40023;DHT22;25713;-35.352;149.036;2023-04-06T05:20:52;19.50;81.00
40023;DHT22;25713;-35.352;149.036;2023-04-06T05:23:28;19.50;81.90
40023;DHT22;25713;-35.352;149.036;2023-04-06T05:25:59;19.50;81.60
40023;DHT22;25713;-35.352;149.036;2023-04-06T05:28:32;19.50;81.20
40023;DHT22;25713;-35.352;149.036;2023-04-06T05:31:03;19.50;78.40
40023;DHT22;25713;-35.352;149.036;2023-04-06T05:33:41;19.50;80.40
40023;DHT22;25713;-35.352;149.036;2023-04-06T05:36:14;19.50;83.70
40023;DHT22;25713;-35.352;149.036;2023-04-06T05:38:46;19.50;83.80
40023;DHT22;25713;-35.352;149.036;2023-04-06T05:41:35;19.50;82.70
40023;DHT22;25713;-35.352;149.036;2023-04-06T05:44:08;19.50;82.20
40023;DHT22;25713;-35.352;149.036;2023-04-06T05:46:38;19.50;80.00
40023;DHT22;25713;-35.352;149.036;2023-04-06T05:49:09;19.40;82.60
40023;DHT22;25713;-35.352;149.036;2023-04-06T05:51:39;19.40;82.20
40023;DHT22;25713;-35.352;149.036;2023-04-06T05:54:08;19.40;82.80
40023;DHT22;25713;-35.352;149.036;2023-04-06T05:56:38;19.40;83.60
40023;DHT22;25713;-35.352;149.036;2023-04-06T05:59:11;19.40;84.70
40023;DHT22;25713;-35.352;149.036;2023-04-06T06:01:40;19.40;84.00
40023;DHT22;25713;-35.352;149.036;2023-04-06T06:04:10;19.40;83.90
40023;DHT22;25713;-35.352;149.036;2023-04-06T06:06:41;19.40;85.40
40023;DHT22;25713;-35.352;149.036;2023-04-06T06:09:20;19.40;85.00
40023;DHT22;25713;-35.352;149.036;2023-04-06T06:12:01;19.30;83.60
40023;DHT22;25713;-35.352;149.036;2023-04-06T06:14:34;19.40;82.90
40023;DHT22;25713;-35.352;149.036;2023-04-06T06:17:03;19.30;82.10
40023;DHT22;25713;-35.352;149.036;2023-04-06T06:19:33;19.30;82.90
40023;DHT22;25713;-35.352;149.036;2023-04-06T06:22:07;19.30;84.80
40023;DHT22;25713;-35.352;149.036;2023-04-06T06:24:40;19.30;85.20
40023;DHT22;25713;-35.352;149.036;2023-04-06T06:27:10;19.30;85.20
40023;DHT22;25713;-35.352;149.036;2023-04-06T06:29:42;19.30;86.40
40023;DHT22;25713;-35.352;149.036;2023-04-06T06:32:13;19.30;87.20
40023;DHT22;25713;-35.352;149.036;2023-04-06T06:34:43;19.30;87.00
40023;DHT22;25713;-35.352;149.036;2023-04-06T06:37:13;19.30;86.70
40023;DHT22;25713;-35.352;149.036;2023-04-06T06:39:43;19.30;84.10
40023;DHT22;25713;-35.352;149.036;2023-04-06T06:42:13;19.30;81.50
40023;DHT22;25713;-35.352;149.036;2023-04-06T06:45:06;19.30;83.60
40023;DHT22;25713;-35.352;149.036;2023-04-06T06:47:36;19.30;85.70
40023;DHT22;25713;-35.352;149.036;2023-04-06T06:50:06;19.30;83.80
40023;DHT22;25713;-35.352;149.036;2023-04-06T06:52:36;19.40;83.60
40023;DHT22;25713;-35.352;149.036;2023-04-06T06:55:06;19.40;84.50
40023;DHT22;25713;-35.352;149.036;2023-04-06T06:57:37;19.40;84.40
40023;DHT22;25713;-35.352;149.036;2023-04-06T07:00:11;19.40;84.70
40023;DHT22;25713;-35.352;149.036;2023-04-06T07:02:41;19.40;85.40
40023;DHT22;25713;-35.352;149.036;2023-04-06T07:05:11;19.40;85.00
40023;DHT22;25713;-35.352;149.036;2023-04-06T07:07:40;19.40;85.50
40023;DHT22;25713;-35.352;149.036;2023-04-06T07:10:10;19.40;85.80
40023;DHT22;25713;-35.352;149.036;2023-04-06T07:12:43;19.30;85.00
40023;DHT22;25713;-35.352;149.036;2023-04-06T07:15:18;19.30;85.20
40023;DHT22;25713;-35.352;149.036;2023-04-06T07:17:48;19.30;86.80
40023;DHT22;25713;-35.352;149.036;2023-04-06T07:20:17;19.30;87.50
40023;DHT22;25713;-35.352;149.036;2023-04-06T07:22:47;19.30;88.00
40023;DHT22;25713;-35.352;149.036;2023-04-06T07:25:17;19.30;88.40
40023;DHT22;25713;-35.352;149.036;2023-04-06T07:27:46;19.30;87.20
40023;DHT22;25713;-35.352;149.036;2023-04-06T07:30:18;19.30;88.20
40023;DHT22;25713;-35.352;149.036;2023-04-06T07:32:48;19.30;88.40
40023;DHT22;25713;-35.352;149.036;2023-04-06T07:35:17;19.30;88.70
40023;DHT22;25713;-35.352;149.036;2023-04-06T07:37:47;19.30;88.60
40023;DHT22;25713;-35.352;149.036;2023-04-06T07:40:16;19.30;88.30
40023;DHT22;25713;-35.352;149.036;2023-04-06T07:42:46;19.30;88.20
40023;DHT22;25713;-35.352;149.036;2023-04-06T07:45:18;19.30;88.50
40023;DHT22;25713;-35.352;149.036;2023-04-06T07:47:49;19.30;88.70
40023;DHT22;25713;-35.352;149.036;2023-04-06T07:50:18;19.30;88.70
40023;DHT22;25713;-35.352;149.036;2023-04-06T07:52:48;19.30;88.80
40023;DHT22;25713;-35.352;149.036;2023-04-06T07:55:17;19.20;89.00
40023;DHT22;25713;-35.352;149.036;2023-04-06T07:57:47;19.30;89.10
40023;DHT22;25713;-35.352;149.036;2023-04-06T08:00:19;19.20;89.20
40023;DHT22;25713;-35.352;149.036;2023-04-06T08:02:48;19.30;89.30
40023;DHT22;25713;-35.352;149.036;2023-04-06T08:05:18;19.30;89.60
40023;DHT22;25713;-35.352;149.036;2023-04-06T08:07:47;19.30;89.80
40023;DHT22;25713;-35.352;149.036;2023-04-06T08:10:17;19.30;89.80
40023;DHT22;25713;-35.352;149.036;2023-04-06T08:12:46;19.20;89.70
40023;DHT22;25713;-35.352;149.036;2023-04-06T08:15:16;19.30;90.00
40023;DHT22;25713;-35.352;149.036;2023-04-06T08:17:48;19.20;90.00
40023;DHT22;25713;-35.352;149.036;2023-04-06T08:20:17;19.20;89.90
40023;DHT22;25713;-35.352;149.036;2023-04-06T08:22:47;19.20;89.80
40023;DHT22;25713;-35.352;149.036;2023-04-06T08:25:17;19.20;89.70
40023;DHT22;25713;-35.352;149.036;2023-04-06T08:27:47;19.20;89.90
40023;DHT22;25713;-35.352;149.036;2023-04-06T08:30:16;19.20;90.00
40023;DHT22;25713;-35.352;149.036;2023-04-06T08:32:47;19.20;90.10
40023;DHT22;25713;-35.352;149.036;2023-04-06T08:35:17;19.20;90.10
40023;DHT22;25713;-35.352;149.036;2023-04-06T08:37:47;19.20;90.00
40023;DHT22;25713;-35.352;149.036;2023-04-06T08:40:16;19.20;90.30
40023;DHT22;25713;-35.352;149.036;2023-04-06T08:42:52;19.20;90.10
40023;DHT22;25713;-35.352;149.036;2023-04-06T08:45:23;19.20;90.10
40023;DHT22;25713;-35.352;149.036;2023-04-06T08:47:55;19.20;90.00
40023;DHT22;25713;-35.352;149.036;2023-04-06T08:50:27;19.20;90.10
40023;DHT22;25713;-35.352;149.036;2023-04-06T08:52:57;19.20;90.10
40023;DHT22;25713;-35.352;149.036;2023-04-06T08:55:27;19.20;90.20
40023;DHT22;25713;-35.352;149.036;2023-04-06T08:57:57;19.20;90.20
40023;DHT22;25713;-35.352;149.036;2023-04-06T09:00:28;19.20;90.20
40023;DHT22;25713;-35.352;149.036;2023-04-06T09:03:00;19.10;90.00
40023;DHT22;25713;-35.352;149.036;2023-04-06T09:05:30;19.10;90.10
40023;DHT22;25713;-35.352;149.036;2023-04-06T09:08:00;19.10;90.10
40023;DHT22;25713;-35.352;149.036;2023-04-06T09:10:30;19.10;90.10
40023;DHT22;25713;-35.352;149.036;2023-04-06T09:13:07;19.10;90.10
40023;DHT22;25713;-35.352;149.036;2023-04-06T09:15:37;19.10;90.10
40023;DHT22;25713;-35.352;149.036;2023-04-06T09:18:08;19.10;90.10
40023;DHT22;25713;-35.352;149.036;2023-04-06T09:20:38;19.10;90.20
40023;DHT22;25713;-35.352;149.036;2023-04-06T09:23:17;19.10;90.20
40023;DHT22;25713;-35.352;149.036;2023-04-06T09:25:47;19.10;90.20
40023;DHT22;25713;-35.352;149.036;2023-04-06T09:28:17;19.10;90.10
40023;DHT22;25713;-35.352;149.036;2023-04-06T09:30:49;19.10;90.20
40023;DHT22;25713;-35.352;149.036;2023-04-06T09:33:25;19.10;90.10
40023;DHT22;25713;-35.352;149.036;2023-04-06T09:35:55;19.10;90.20
40023;DHT22;25713;-35.352;149.036;2023-04-06T09:38:24;19.10;90.20
40023;DHT22;25713;-35.352;149.036;2023-04-06T09:40:53;19.00;90.20
40023;DHT22;25713;-35.352;149.036;2023-04-06T09:43:26;19.00;90.30
40023;DHT22;25713;-35.352;149.036;2023-04-06T09:45:56;19.10;90.30
40023;DHT22;25713;-35.352;149.036;2023-04-06T09:48:31;19.00;90.20
40023;DHT22;25713;-35.352;149.036;2023-04-06T09:51:04;19.00;90.30
40023;DHT22;25713;-35.352;149.036;2023-04-06T09:53:37;19.00;90.50
40023;DHT22;25713;-35.352;149.036;2023-04-06T09:56:09;19.00;90.20
40023;DHT22;25713;-35.352;149.036;2023-04-06T09:58:42;19.10;90.40
40023;DHT22;25713;-35.352;149.036;2023-04-06T10:01:15;19.00;90.30
40023;DHT22;25713;-35.352;149.036;2023-04-06T10:03:54;19.00;90.20
40023;DHT22;25713;-35.352;149.036;2023-04-06T10:06:28;19.00;90.20
40023;DHT22;25713;-35.352;149.036;2023-04-06T10:09:00;19.00;90.20
40023;DHT22;25713;-35.352;149.036;2023-04-06T10:11:31;19.00;90.20
40023;DHT22;25713;-35.352;149.036;2023-04-06T10:14:01;19.00;90.20
40023;DHT22;25713;-35.352;149.036;2023-04-06T10:16:31;18.90;89.60
40023;DHT22;25713;-35.352;149.036;2023-04-06T10:19:10;18.90;90.10
40023;DHT22;25713;-35.352;149.036;2023-04-06T10:21:42;18.90;90.20
40023;DHT22;25713;-35.352;149.036;2023-04-06T10:24:13;18.90;90.10
40023;DHT22;25713;-35.352;149.036;2023-04-06T10:26:43;18.90;90.10
40023;DHT22;25713;-35.352;149.036;2023-04-06T10:29:12;18.90;90.00
40023;DHT22;25713;-35.352;149.036;2023-04-06T10:31:43;18.90;90.10
40023;DHT22;25713;-35.352;149.036;2023-04-06T10:34:15;18.90;90.40
40023;DHT22;25713;-35.352;149.036;2023-04-06T10:36:44;19.00;90.20
40023;DHT22;25713;-35.352;149.036;2023-04-06T10:39:14;18.90;90.20
40023;DHT22;25713;-35.352;149.036;2023-04-06T10:41:44;18.90;90.30
40023;DHT22;25713;-35.352;149.036;2023-04-06T10:44:21;18.90;90.30
40023;DHT22;25713;-35.352;149.036;2023-04-06T10:47:00;18.90;90.30
40023;DHT22;25713;-35.352;149.036;2023-04-06T10:49:31;18.90;90.20
40023;DHT22;25713;-35.352;149.036;2023-04-06T10:52:01;18.90;90.20
40023;DHT22;25713;-35.352;149.036;2023-04-06T10:54:30;18.90;90.10
40023;DHT22;25713;-35.352;149.036;2023-04-06T10:57:00;18.90;90.40
40023;DHT22;25713;-35.352;149.036;2023-04-06T10:59:30;18.90;89.80
40023;DHT22;25713;-35.352;149.036;2023-04-06T11:01:59;18.90;90.10
40023;DHT22;25713;-35.352;149.036;2023-04-06T11:04:31;18.80;90.00
40023;DHT22;25713;-35.352;149.036;2023-04-06T11:07:00;18.80;90.10
40023;DHT22;25713;-35.352;149.036;2023-04-06T11:09:30;18.90;90.10
40023;DHT22;25713;-35.352;149.036;2023-04-06T11:11:59;18.90;90.20
40023;DHT22;25713;-35.352;149.036;2023-04-06T11:14:29;18.90;90.10
40023;DHT22;25713;-35.352;149.036;2023-04-06T11:16:58;18.80;90.30
40023;DHT22;25713;-35.352;149.036;2023-04-06T11:19:28;18.90;90.30
40023;DHT22;25713;-35.352;149.036;2023-04-06T11:22:07;18.80;90.20
40023;DHT22;25713;-35.352;149.036;2023-04-06T11:24:37;18.80;90.20
40023;DHT22;25713;-35.352;149.036;2023-04-06T11:27:10;18.80;90.00
40023;DHT22;25713;-35.352;149.036;2023-04-06T11:29:40;18.80;90.00
40023;DHT22;25713;-35.352;149.036;2023-04-06T11:32:09;18.80;90.00
40023;DHT22;25713;-35.352;149.036;2023-04-06T11:34:39;18.80;90.40
40023;DHT22;25713;-35.352;149.036;2023-04-06T11:37:11;18.80;90.20
40023;DHT22;25713;-35.352;149.036;2023-04-06T11:39:42;18.80;90.30
40023;DHT22;25713;-35.352;149.036;2023-04-06T11:42:12;18.80;90.20
40023;DHT22;25713;-35.352;149.036;2023-04-06T11:44:44;18.80;90.30
40023;DHT22;25713;-35.352;149.036;2023-04-06T11:47:14;18.80;90.30
40023;DHT22;25713;-35.352;149.036;2023-04-06T11:49:44;18.80;90.00
40023;DHT22;25713;-35.352;149.036;2023-04-06T11:52:19;18.80;90.30
40023;DHT22;25713;-35.352;149.036;2023-04-06T11:54:49;18.80;90.20
40023;DHT22;25713;-35.352;149.036;2023-04-06T11:57:19;18.80;90.20
40023;DHT22;25713;-35.352;149.036;2023-04-06T11:59:49;18.80;90.30
40023;DHT22;25713;-35.352;149.036;2023-04-06T12:02:19;18.80;90.30
40023;DHT22;25713;-35.352;149.036;2023-04-06T12:04:52;18.80;90.40
40023;DHT22;25713;-35.352;149.036;2023-04-06T12:07:22;18.80;90.70
40023;DHT22;25713;-35.352;149.036;2023-04-06T12:09:51;18.80;90.70
40023;DHT22;25713;-35.352;149.036;2023-04-06T12:12:21;18.80;90.70
40023;DHT22;25713;-35.352;149.036;2023-04-06T12:14:50;18.80;90.80
40023;DHT22;25713;-35.352;149.036;2023-04-06T12:17:20;18.80;90.70
40023;DHT22;25713;-35.352;149.036;2023-04-06T12:19:49;18.80;90.70
40023;DHT22;25713;-35.352;149.036;2023-04-06T12:22:19;18.70;90.80
40023;DHT22;25713;-35.352;149.036;2023-04-06T12:24:50;18.80;90.60
40023;DHT22;25713;-35.352;149.036;2023-04-06T12:27:20;18.70;90.70
40023;DHT22;25713;-35.352;149.036;2023-04-06T12:29:49;18.70;90.70
40023;DHT22;25713;-35.352;149.036;2023-04-06T12:32:19;18.70;90.70
40023;DHT22;25713;-35.352;149.036;2023-04-06T12:34:48;18.70;90.70
40023;DHT22;25713;-35.352;149.036;2023-04-06T12:37:18;18.70;90.70
40023;DHT22;25713;-35.352;149.036;2023-04-06T12:39:49;18.70;90.70
40023;DHT22;25713;-35.352;149.036;2023-04-06T12:42:18;18.70;90.70
40023;DHT22;25713;-35.352;149.036;2023-04-06T12:44:48;18.70;90.70
40023;DHT22;25713;-35.352;149.036;2023-04-06T12:47:17;18.70;90.50
40023;DHT22;25713;-35.352;149.036;2023-04-06T12:49:47;18.70;90.50
40023;DHT22;25713;-35.352;149.036;2023-04-06T12:52:16;18.70;90.60
40023;DHT22;25713;-35.352;149.036;2023-04-06T12:54:46;18.70;90.50
40023;DHT22;25713;-35.352;149.036;2023-04-06T12:57:18;18.70;90.50
40023;DHT22;25713;-35.352;149.036;2023-04-06T12:59:47;18.70;90.40
40023;DHT22;25713;-35.352;149.036;2023-04-06T13:04:48;18.60;90.20
40023;DHT22;25713;-35.352;149.036;2023-04-06T13:07:18;18.70;90.50
40023;DHT22;25713;-35.352;149.036;2023-04-06T13:09:48;18.70;90.40
40023;DHT22;25713;-35.352;149.036;2023-04-06T13:12:19;18.70;90.30
40023;DHT22;25713;-35.352;149.036;2023-04-06T13:14:48;18.60;90.20
40023;DHT22;25713;-35.352;149.036;2023-04-06T13:17:18;18.70;90.20
40023;DHT22;25713;-35.352;149.036;2023-04-06T13:19:47;18.70;90.00
40023;DHT22;25713;-35.352;149.036;2023-04-06T13:22:17;18.70;90.10
40023;DHT22;25713;-35.352;149.036;2023-04-06T13:24:46;18.60;90.10
40023;DHT22;25713;-35.352;149.036;2023-04-06T13:27:17;18.60;90.20
40023;DHT22;25713;-35.352;149.036;2023-04-06T13:29:47;18.60;90.10
40023;DHT22;25713;-35.352;149.036;2023-04-06T13:32:16;18.60;90.10
40023;DHT22;25713;-35.352;149.036;2023-04-06T13:34:46;18.60;90.10
40023;DHT22;25713;-35.352;149.036;2023-04-06T13:37:15;18.60;90.10
40023;DHT22;25713;-35.352;149.036;2023-04-06T13:39:45;18.60;90.00
40023;DHT22;25713;-35.352;149.036;2023-04-06T13:42:14;18.60;90.00
40023;DHT22;25713;-35.352;149.036;2023-04-06T13:44:45;18.60;89.80
40023;DHT22;25713;-35.352;149.036;2023-04-06T13:47:15;18.60;89.80
40023;DHT22;25713;-35.352;149.036;2023-04-06T13:49:44;18.60;89.80
40023;DHT22;25713;-35.352;149.036;2023-04-06T13:52:14;18.60;89.80
40023;DHT22;25713;-35.352;149.036;2023-04-06T13:54:43;18.60;89.70
40023;DHT22;25713;-35.352;149.036;2023-04-06T13:57:13;18.60;89.50
40023;DHT22;25713;-35.352;149.036;2023-04-06T13:59:44;18.60;89.30
40023;DHT22;25713;-35.352;149.036;2023-04-06T14:02:14;18.60;89.30
40023;DHT22;25713;-35.352;149.036;2023-04-06T14:04:43;18.50;89.00
40023;DHT22;25713;-35.352;149.036;2023-04-06T14:07:13;18.50;89.30
40023;DHT22;25713;-35.352;149.036;2023-04-06T14:09:42;18.50;88.80
40023;DHT22;25713;-35.352;149.036;2023-04-06T14:12:11;18.60;88.80
40023;DHT22;25713;-35.352;149.036;2023-04-06T14:14:41;18.50;88.70
40023;DHT22;25713;-35.352;149.036;2023-04-06T14:17:12;18.50;88.60
40023;DHT22;25713;-35.352;149.036;2023-04-06T14:19:41;18.50;88.60
40023;DHT22;25713;-35.352;149.036;2023-04-06T14:22:11;18.50;88.80
40023;DHT22;25713;-35.352;149.036;2023-04-06T14:24:40;18.50;88.70
40023;DHT22;25713;-35.352;149.036;2023-04-06T14:27:10;18.50;88.50
40023;DHT22;25713;-35.352;149.036;2023-04-06T14:29:39;18.50;88.70
40023;DHT22;25713;-35.352;149.036;2023-04-06T14:32:10;18.50;88.70
40023;DHT22;25713;-35.352;149.036;2023-04-06T14:34:40;18.50;88.80
40023;DHT22;25713;-35.352;149.036;2023-04-06T14:37:09;18.50;88.40
40023;DHT22;25713;-35.352;149.036;2023-04-06T14:39:38;18.50;88.40
40023;DHT22;25713;-35.352;149.036;2023-04-06T14:42:08;18.50;88.40
40023;DHT22;25713;-35.352;149.036;2023-04-06T14:44:37;18.50;88.30
40023;DHT22;25713;-35.352;149.036;2023-04-06T14:47:07;18.50;88.30
40023;DHT22;25713;-35.352;149.036;2023-04-06T15:52:06;18.10;88.30
40023;DHT22;25713;-35.352;149.036;2023-04-06T15:54:36;18.10;89.00
40023;DHT22;25713;-35.352;149.036;2023-04-06T15:57:06;18.10;89.10
40023;DHT22;25713;-35.352;149.036;2023-04-06T15:59:35;18.10;89.10
40023;DHT22;25713;-35.352;149.036;2023-04-06T16:02:04;18.10;88.90
40023;DHT22;25713;-35.352;149.036;2023-04-06T16:04:34;18.10;88.90
40023;DHT22;25713;-35.352;149.036;2023-04-06T16:07:05;18.10;88.80
40023;DHT22;25713;-35.352;149.036;2023-04-06T16:09:35;18.20;88.70
40023;DHT22;25713;-35.352;149.036;2023-04-06T16:12:04;18.20;88.70
40023;DHT22;25713;-35.352;149.036;2023-04-06T16:14:34;18.20;88.60
40023;DHT22;25713;-35.352;149.036;2023-04-06T16:17:03;18.20;88.40
40023;DHT22;25713;-35.352;149.036;2023-04-06T16:19:32;18.20;88.40